createdAt,value
2023-06-06T00:02:34.501Z,48.51
2023-06-06T00:12:37.185Z,49.11
2023-06-06T00:22:40.368Z,49.09
2023-06-06T00:32:42.630Z,48.96
2023-06-06T00:42:44.902Z,51.73
2023-06-06T00:52:47.599Z,50.54
2023-06-06T01:02:50.648Z,51.06
2023-06-06T01:13:00.442Z,52.53
2023-06-06T01:23:03.157Z,52.10
2023-06-06T01:33:20.861Z,52.33
2023-06-06T01:43:26.711Z,52.24
2023-06-06T01:53:31.030Z,52.94
2023-06-06T02:03:33.559Z,53.18
2023-06-06T02:13:36.024Z,55.49
2023-06-06T02:23:38.305Z,54.50
2023-06-06T02:33:41.729Z,54.09
2023-06-06T02:43:44.045Z,55.51
2023-06-06T02:53:46.679Z,55.69
2023-06-06T03:03:49.676Z,55.85
2023-06-06T03:13:52.642Z,56.23
2023-06-06T03:23:56.023Z,56.21
2023-06-06T03:33:59.418Z,56.43
2023-06-06T03:44:03.415Z,56.68
2023-06-06T03:54:06.091Z,56.01
2023-06-06T04:04:09.428Z,57.10
2023-06-06T04:14:13.391Z,55.53
2023-06-06T04:24:15.766Z,55.96
2023-06-06T04:34:18.184Z,55.50
2023-06-06T04:44:21.668Z,58.95
2023-06-06T04:54:24.615Z,56.93
2023-06-06T05:04:26.885Z,56.59
2023-06-06T05:14:29.171Z,56.30
2023-06-06T05:24:31.566Z,56.58
2023-06-06T05:34:34.230Z,55.31
2023-06-06T05:44:36.799Z,54.74
2023-06-06T05:54:49.545Z,53.82
2023-06-06T06:04:54.420Z,54.20
2023-06-06T06:14:57.292Z,53.96
2023-06-06T06:24:59.508Z,53.92
2023-06-06T06:35:05.044Z,52.95
2023-06-06T06:45:09.523Z,53.83
2023-06-06T06:55:11.905Z,54.39
2023-06-06T07:05:17.904Z,54.08
2023-06-06T07:15:20.950Z,52.33
2023-06-06T07:25:23.336Z,50.51
2023-06-06T07:35:31.335Z,49.79
2023-06-06T07:45:33.798Z,49.06
2023-06-06T07:55:36.228Z,49.09
2023-06-06T08:05:41.525Z,47.48
2023-06-06T08:15:43.772Z,46.99
2023-06-06T08:25:46.604Z,46.13
2023-06-06T08:35:49.011Z,47.30
2023-06-06T08:45:57.384Z,46.96
2023-06-06T08:56:00.145Z,45.77
2023-06-06T09:06:02.528Z,45.49
2023-06-06T09:16:05.933Z,43.52
2023-06-06T09:26:22.095Z,42.69
2023-06-06T09:36:26.495Z,40.88
2023-06-06T09:46:28.846Z,42.00
2023-06-06T09:56:31.365Z,39.74
2023-06-06T10:06:35.222Z,41.31
2023-06-06T10:16:37.901Z,39.93
2023-06-06T10:26:46.887Z,40.47
2023-06-06T10:36:49.273Z,39.00
2023-06-06T10:46:51.754Z,37.82
2023-06-06T10:56:57.837Z,36.45
2023-06-06T11:07:01.793Z,35.19
2023-06-06T11:17:04.548Z,33.73
2023-06-06T11:27:07.384Z,33.12
2023-06-06T11:49:18.633Z,31.08
2023-06-06T11:59:21.207Z,32.81
2023-06-06T12:09:24.983Z,31.42
2023-06-06T12:19:27.326Z,32.04
2023-06-06T12:29:37.329Z,29.88
2023-06-06T12:39:41.944Z,31.79
2023-06-06T12:49:46.090Z,31.77
2023-06-06T12:59:48.374Z,30.21
2023-06-06T13:09:50.862Z,29.93
2023-06-06T13:19:53.118Z,29.96
2023-06-06T13:29:55.346Z,28.41
2023-06-06T13:39:57.661Z,31.38
2023-06-06T13:49:59.890Z,28.53
2023-06-06T14:00:02.346Z,30.18
2023-06-06T14:10:09.403Z,31.68
2023-06-06T14:20:14.222Z,31.89
2023-06-06T14:30:16.533Z,31.37
2023-06-06T14:40:18.962Z,30.88
2023-06-06T14:50:22.550Z,28.38
2023-06-06T15:00:24.991Z,28.44
2023-06-06T15:10:27.613Z,28.57
2023-06-06T15:20:29.981Z,25.98
2023-06-06T15:30:32.221Z,27.06
2023-06-06T15:40:34.485Z,27.17
2023-06-06T15:50:37.310Z,26.25
2023-06-06T16:00:39.652Z,25.54
2023-06-06T16:10:42.011Z,25.66
2023-06-06T16:20:44.426Z,26.22
2023-06-06T16:30:46.717Z,25.05
2023-06-06T16:40:49.105Z,25.24
2023-06-06T16:50:52.466Z,27.61
2023-06-06T17:00:54.744Z,25.40
2023-06-06T17:10:57.178Z,25.12
2023-06-06T17:21:01.089Z,27.38
2023-06-06T17:31:04.007Z,27.57
2023-06-06T17:41:06.500Z,30.25
2023-06-06T17:51:08.860Z,29.87
2023-06-06T18:01:11.260Z,31.69
2023-06-06T18:11:14.272Z,32.08
2023-06-06T18:21:17.418Z,33.45
2023-06-06T18:31:35.695Z,34.44
2023-06-06T18:41:40.209Z,34.76
2023-06-06T18:51:47.951Z,34.73
2023-06-06T19:01:50.722Z,35.45
2023-06-06T19:11:53.422Z,36.26
2023-06-06T19:21:56.568Z,36.47
2023-06-06T19:31:58.960Z,36.47
2023-06-06T19:42:01.335Z,36.91
2023-06-06T19:52:07.432Z,36.95
2023-06-06T20:02:09.883Z,36.58
2023-06-06T20:12:12.366Z,37.58
2023-06-06T20:22:15.625Z,36.78
2023-06-06T20:32:18.247Z,38.05
2023-06-06T20:42:21.453Z,39.24
2023-06-06T20:52:24.905Z,39.83
2023-06-06T21:02:27.378Z,41.14
2023-06-06T21:12:31.535Z,40.37
2023-06-06T21:22:33.762Z,40.19
2023-06-06T21:32:36.595Z,42.49
2023-06-06T21:42:38.997Z,40.21
2023-06-06T21:52:41.203Z,40.17
2023-06-06T22:02:43.573Z,40.09
2023-06-06T22:12:45.921Z,40.51
2023-06-06T22:22:48.115Z,41.76
2023-06-06T22:32:50.503Z,41.10
2023-06-06T22:42:56.283Z,43.17
2023-06-06T22:52:58.508Z,43.56
2023-06-06T23:03:00.838Z,44.51
2023-06-06T23:13:03.130Z,47.17
2023-06-06T23:23:05.364Z,46.68
2023-06-06T23:33:07.636Z,46.54
2023-06-06T23:43:10.467Z,46.45
2023-06-06T23:53:12.740Z,46.95
